sensor_id;sensor_type;location;lat;lon;timestamp;pressure;altitude;pressure_sealevel;temperature;humidity
59513;BME280;45330;51.634;5.562;2023-05-09T00:01:30;101693.69;;;14.87;100.00
59513;BME280;45330;51.634;5.562;2023-05-09T00:03:57;101690.97;;;14.95;100.00
59513;BME280;45330;51.634;5.562;2023-05-09T00:06:23;101686.59;;;14.97;100.00
59513;BME280;45330;51.634;5.562;2023-05-09T00:08:50;101676.22;;;14.87;100.00
59513;BME280;45330;51.634;5.562;2023-05-09T00:11:15;101684.88;;;14.96;100.00
59513;BME280;45330;51.634;5.562;2023-05-09T00:13:41;101670.13;;;14.85;100.00
59513;BME280;45330;51.634;5.562;2023-05-09T00:16:08;101677.03;;;14.94;100.00
59513;BME280;45330;51.634;5.562;2023-05-09T00:18:34;101666.59;;;14.89;100.00
59513;BME280;45330;51.634;5.562;2023-05-09T00:21:01;101680.44;;;15.01;100.00
59513;BME280;45330;51.634;5.562;2023-05-09T00:23:29;101674.38;;;14.96;100.00
59513;BME280;45330;51.634;5.562;2023-05-09T00:25:54;101664.84;;;14.88;100.00
59513;BME280;45330;51.634;5.562;2023-05-09T00:28:20;101676.09;;;14.98;100.00
59513;BME280;45330;51.634;5.562;2023-05-09T00:30:45;101675.25;;;14.95;100.00
59513;BME280;45330;51.634;5.562;2023-05-09T00:33:10;101670.91;;;14.92;100.00
59513;BME280;45330;51.634;5.562;2023-05-09T00:35:36;101659.69;;;14.79;100.00
59513;BME280;45330;51.634;5.562;2023-05-09T00:38:01;101650.13;;;14.78;100.00
59513;BME280;45330;51.634;5.562;2023-05-09T00:40:26;101657.06;;;14.84;100.00
59513;BME280;45330;51.634;5.562;2023-05-09T00:42:52;101650.91;;;14.85;100.00
59513;BME280;45330;51.634;5.562;2023-05-09T00:45:17;101648.34;;;14.80;100.00
59513;BME280;45330;51.634;5.562;2023-05-09T00:47:43;101644.09;;;14.70;100.00
59513;BME280;45330;51.634;5.562;2023-05-09T00:50:08;101637.16;;;14.59;100.00
59513;BME280;45330;51.634;5.562;2023-05-09T00:52:35;101646.75;;;14.65;100.00
59513;BME280;45330;51.634;5.562;2023-05-09T00:55:00;101643.25;;;14.66;100.00
59513;BME280;45330;51.634;5.562;2023-05-09T00:57:26;101638.00;;;14.66;100.00
59513;BME280;45330;51.634;5.562;2023-05-09T00:59:51;101630.22;;;14.55;100.00
59513;BME280;45330;51.634;5.562;2023-05-09T01:02:17;101635.41;;;14.62;100.00
59513;BME280;45330;51.634;5.562;2023-05-09T01:04:44;101629.38;;;14.53;100.00
59513;BME280;45330;51.634;5.562;2023-05-09T01:09:49;101626.72;;;14.56;100.00
59513;BME280;45330;51.634;5.562;2023-05-09T01:15:38;101623.13;;;14.70;100.00
59513;BME280;45330;51.634;5.562;2023-05-09T01:18:19;101601.34;;;14.65;100.00
59513;BME280;45330;51.634;5.562;2023-05-09T01:20:56;101610.00;;;14.73;100.00
59513;BME280;45330;51.634;5.562;2023-05-09T01:23:39;101609.13;;;14.74;100.00
59513;BME280;45330;51.634;5.562;2023-05-09T01:26:35;101607.44;;;14.68;100.00
59513;BME280;45330;51.634;5.562;2023-05-09T01:29:47;101602.19;;;14.67;100.00
59513;BME280;45330;51.634;5.562;2023-05-09T01:32:15;101592.66;;;14.56;100.00
59513;BME280;45330;51.634;5.562;2023-05-09T01:34:43;101574.47;;;14.47;100.00
59513;BME280;45330;51.634;5.562;2023-05-09T01:37:10;101568.41;;;14.40;100.00
59513;BME280;45330;51.634;5.562;2023-05-09T01:39:38;101570.19;;;14.35;100.00
59513;BME280;45330;51.634;5.562;2023-05-09T01:42:07;101586.72;;;14.42;100.00
59513;BME280;45330;51.634;5.562;2023-05-09T01:44:38;101578.91;;;14.37;100.00
59513;BME280;45330;51.634;5.562;2023-05-09T01:47:07;101592.00;;;14.39;100.00
59513;BME280;45330;51.634;5.562;2023-05-09T01:49:37;101562.41;;;14.31;100.00
59513;BME280;45330;51.634;5.562;2023-05-09T01:52:07;101571.97;;;14.35;100.00
59513;BME280;45330;51.634;5.562;2023-05-09T01:54:33;101560.66;;;14.30;100.00
59513;BME280;45330;51.634;5.562;2023-05-09T01:57:01;101564.13;;;14.32;100.00
59513;BME280;45330;51.634;5.562;2023-05-09T01:59:28;101565.81;;;14.36;100.00
59513;BME280;45330;51.634;5.562;2023-05-09T02:01:54;101558.91;;;14.32;100.00
59513;BME280;45330;51.634;5.562;2023-05-09T02:04:20;101558.97;;;14.22;100.00
59513;BME280;45330;51.634;5.562;2023-05-09T02:06:47;101567.66;;;14.28;100.00
59513;BME280;45330;51.634;5.562;2023-05-09T02:09:17;101552.94;;;14.16;100.00
59513;BME280;45330;51.634;5.562;2023-05-09T02:11:43;101565.06;;;14.23;100.00
59513;BME280;45330;51.634;5.562;2023-05-09T02:14:08;101566.84;;;14.21;100.00
59513;BME280;45330;51.634;5.562;2023-05-09T02:16:34;101567.78;;;14.15;100.00
59513;BME280;45330;51.634;5.562;2023-05-09T02:18:59;101559.94;;;14.14;100.00
59513;BME280;45330;51.634;5.562;2023-05-09T02:21:25;101559.97;;;14.12;100.00
59513;BME280;45330;51.634;5.562;2023-05-09T02:23:51;101552.16;;;14.06;100.00
59513;BME280;45330;51.634;5.562;2023-05-09T02:26:16;101552.16;;;14.06;100.00
59513;BME280;45330;51.634;5.562;2023-05-09T02:28:43;101553.94;;;14.02;100.00
59513;BME280;45330;51.634;5.562;2023-05-09T02:31:10;101556.63;;;13.93;100.00
59513;BME280;45330;51.634;5.562;2023-05-09T02:33:38;101552.28;;;13.95;100.00
59513;BME280;45330;51.634;5.562;2023-05-09T02:36:06;101554.91;;;13.90;100.00
59513;BME280;45330;51.634;5.562;2023-05-09T02:38:33;101552.31;;;13.87;100.00
59513;BME280;45330;51.634;5.562;2023-05-09T02:40:59;101561.94;;;13.87;100.00
59513;BME280;45330;51.634;5.562;2023-05-09T02:43:24;101559.31;;;13.85;100.00
59513;BME280;45330;51.634;5.562;2023-05-09T02:45:50;101561.03;;;13.86;100.00
59513;BME280;45330;51.634;5.562;2023-05-09T02:48:15;101555.78;;;13.88;100.00
59513;BME280;45330;51.634;5.562;2023-05-09T02:50:41;101550.59;;;13.83;100.00
59513;BME280;45330;51.634;5.562;2023-05-09T02:53:08;101548.03;;;13.79;100.00
59513;BME280;45330;51.634;5.562;2023-05-09T02:55:33;101540.25;;;13.71;100.00
59513;BME280;45330;51.634;5.562;2023-05-09T02:57:59;101542.03;;;13.66;100.00
59513;BME280;45330;51.634;5.562;2023-05-09T03:00:25;101528.16;;;13.58;100.00
59513;BME280;45330;51.634;5.562;2023-05-09T03:02:50;101515.09;;;13.51;100.00
59513;BME280;45330;51.634;5.562;2023-05-09T03:05:16;101530.81;;;13.50;100.00
59513;BME280;45330;51.634;5.562;2023-05-09T03:07:42;101537.75;;;13.55;100.00
59513;BME280;45330;51.634;5.562;2023-05-09T03:10:08;101531.69;;;13.46;100.00
59513;BME280;45330;51.634;5.562;2023-05-09T03:12:36;101523.03;;;13.41;100.00
59513;BME280;45330;51.634;5.562;2023-05-09T03:15:06;101525.69;;;13.37;100.00
59513;BME280;45330;51.634;5.562;2023-05-09T03:17:31;101521.34;;;13.32;100.00
59513;BME280;45330;51.634;5.562;2023-05-09T03:19:57;101519.59;;;13.29;100.00
59513;BME280;45330;51.634;5.562;2023-05-09T03:22:22;101503.94;;;13.25;100.00
59513;BME280;45330;51.634;5.562;2023-05-09T03:24:47;101511.75;;;13.29;100.00
59513;BME280;45330;51.634;5.562;2023-05-09T03:27:13;101494.38;;;13.24;100.00
59513;BME280;45330;51.634;5.562;2023-05-09T03:29:39;101514.34;;;13.32;100.00
59513;BME280;45330;51.634;5.562;2023-05-09T03:32:04;101510.88;;;13.29;100.00
59513;BME280;45330;51.634;5.562;2023-05-09T03:34:29;101514.34;;;13.35;100.00
59513;BME280;45330;51.634;5.562;2023-05-09T03:36:55;101507.34;;;13.34;100.00
59513;BME280;45330;51.634;5.562;2023-05-09T03:39:20;101506.50;;;13.38;100.00
59513;BME280;45330;51.634;5.562;2023-05-09T03:41:46;101503.88;;;13.37;100.00
59513;BME280;45330;51.634;5.562;2023-05-09T03:44:11;101507.38;;;13.39;100.00
59513;BME280;45330;51.634;5.562;2023-05-09T03:46:37;101510.00;;;13.39;100.00
59513;BME280;45330;51.634;5.562;2023-05-09T03:49:02;101507.34;;;13.41;100.00
59513;BME280;45330;51.634;5.562;2023-05-09T03:51:29;101492.53;;;13.40;100.00
59513;BME280;45330;51.634;5.562;2023-05-09T03:53:54;101476.00;;;13.31;100.00
59513;BME280;45330;51.634;5.562;2023-05-09T03:56:20;101476.88;;;13.33;100.00
59513;BME280;45330;51.634;5.562;2023-05-09T03:58:46;101489.91;;;13.41;100.00
59513;BME280;45330;51.634;5.562;2023-05-09T04:01:12;101465.53;;;13.33;100.00
59513;BME280;45330;51.634;5.562;2023-05-09T04:03:37;101473.41;;;13.37;100.00
59513;BME280;45330;51.634;5.562;2023-05-09T04:06:04;101480.34;;;13.40;100.00
59513;BME280;45330;51.634;5.562;2023-05-09T04:08:30;101489.09;;;13.37;100.00
59513;BME280;45330;51.634;5.562;2023-05-09T04:10:56;101480.34;;;13.37;100.00
59513;BME280;45330;51.634;5.562;2023-05-09T04:13:21;101480.34;;;13.38;100.00
59513;BME280;45330;51.634;5.562;2023-05-09T04:15:46;101470.78;;;13.39;100.00
59513;BME280;45330;51.634;5.562;2023-05-09T04:18:12;101473.38;;;13.42;100.00
59513;BME280;45330;51.634;5.562;2023-05-09T04:20:37;101454.22;;;13.32;100.00
59513;BME280;45330;51.634;5.562;2023-05-09T04:23:02;101471.66;;;13.38;100.00
59513;BME280;45330;51.634;5.562;2023-05-09T04:25:28;101459.44;;;13.34;100.00
59513;BME280;45330;51.634;5.562;2023-05-09T04:27:55;101430.78;;;13.21;100.00
59513;BME280;45330;51.634;5.562;2023-05-09T04:30:22;101438.59;;;13.23;100.00
59513;BME280;45330;51.634;5.562;2023-05-09T04:32:47;101455.09;;;13.33;100.00
59513;BME280;45330;51.634;5.562;2023-05-09T04:35:14;101455.09;;;13.36;100.00
59513;BME280;45330;51.634;5.562;2023-05-09T04:37:39;101455.09;;;13.39;100.00
59513;BME280;45330;51.634;5.562;2023-05-09T04:40:06;101442.94;;;13.35;100.00
59513;BME280;45330;51.634;5.562;2023-05-09T04:42:33;101442.03;;;13.39;100.00
59513;BME280;45330;51.634;5.562;2023-05-09T04:44:59;101444.59;;;13.42;100.00
59513;BME280;45330;51.634;5.562;2023-05-09T04:47:25;101455.81;;;13.57;100.00
59513;BME280;45330;51.634;5.562;2023-05-09T04:49:50;101439.28;;;13.54;100.00
59513;BME280;45330;51.634;5.562;2023-05-09T04:52:16;101446.97;;;13.71;100.00
59513;BME280;45330;51.634;5.562;2023-05-09T04:54:41;101430.41;;;13.69;100.00
59513;BME280;45330;51.634;5.562;2023-05-09T04:57:06;101432.94;;;13.79;100.00
59513;BME280;45330;51.634;5.562;2023-05-09T04:59:32;101436.34;;;13.88;100.00
59513;BME280;45330;51.634;5.562;2023-05-09T05:01:58;101427.53;;;13.96;100.00
59513;BME280;45330;51.634;5.562;2023-05-09T05:04:23;101443.84;;;14.19;100.00
59513;BME280;45330;51.634;5.562;2023-05-09T05:06:48;101422.75;;;14.32;100.00
59513;BME280;45330;51.634;5.562;2023-05-09T05:09:14;101414.66;;;14.52;100.00
59513;BME280;45330;51.634;5.562;2023-05-09T05:11:39;101418.06;;;14.58;100.00
59513;BME280;45330;51.634;5.562;2023-05-09T05:14:05;101415.34;;;14.66;100.00
59513;BME280;45330;51.634;5.562;2023-05-09T05:16:30;101405.72;;;14.68;100.00
59513;BME280;45330;51.634;5.562;2023-05-09T05:18:55;101410.03;;;14.71;100.00
59513;BME280;45330;51.634;5.562;2023-05-09T05:21:21;101400.50;;;14.68;100.00
59513;BME280;45330;51.634;5.562;2023-05-09T05:23:46;101396.94;;;14.71;100.00
59513;BME280;45330;51.634;5.562;2023-05-09T05:26:11;101396.16;;;14.66;100.00
59513;BME280;45330;51.634;5.562;2023-05-09T05:28:37;101365.72;;;14.54;100.00
59513;BME280;45330;51.634;5.562;2023-05-09T05:31:02;101369.16;;;14.59;100.00
59513;BME280;45330;51.634;5.562;2023-05-09T05:33:28;101375.97;;;14.74;100.00
59513;BME280;45330;51.634;5.562;2023-05-09T05:35:53;101377.75;;;14.70;100.00
59513;BME280;45330;51.634;5.562;2023-05-09T05:38:18;101375.97;;;14.74;100.00
59513;BME280;45330;51.634;5.562;2023-05-09T05:40:44;101364.56;;;14.75;100.00
59513;BME280;45330;51.634;5.562;2023-05-09T05:43:09;101379.16;;;14.93;100.00
59513;BME280;45330;51.634;5.562;2023-05-09T05:45:35;101372.91;;;15.00;100.00
59513;BME280;45330;51.634;5.562;2023-05-09T05:48:00;101364.81;;;15.16;100.00
59513;BME280;45330;51.634;5.562;2023-05-09T05:50:26;101382.84;;;15.36;100.00
59513;BME280;45330;51.634;5.562;2023-05-09T05:52:52;101381.69;;;15.51;100.00
59513;BME280;45330;51.634;5.562;2023-05-09T05:55:18;101363.19;;;15.58;100.00
59513;BME280;45330;51.634;5.562;2023-05-09T05:57:43;101356.91;;;15.67;100.00
59513;BME280;45330;51.634;5.562;2023-05-09T06:00:09;101363.66;;;15.82;100.00
59513;BME280;45330;51.634;5.562;2023-05-09T06:02:35;101364.31;;;15.92;100.00
59513;BME280;45330;51.634;5.562;2023-05-09T06:05:02;101362.41;;;16.00;100.00
59513;BME280;45330;51.634;5.562;2023-05-09T06:07:28;101345.59;;;16.10;100.00
59513;BME280;45330;51.634;5.562;2023-05-09T06:09:53;101356.09;;;16.50;100.00
59513;BME280;45330;51.634;5.562;2023-05-09T06:12:19;101349.78;;;16.97;100.00
59513;BME280;45330;51.634;5.562;2023-05-09T06:14:44;101363.00;;;17.62;100.00
59513;BME280;45330;51.634;5.562;2023-05-09T06:17:09;101361.38;;;17.91;100.00
59513;BME280;45330;51.634;5.562;2023-05-09T06:19:35;101355.75;;;18.33;100.00
59513;BME280;45330;51.634;5.562;2023-05-09T06:22:01;101339.19;;;18.28;100.00
59513;BME280;45330;51.634;5.562;2023-05-09T06:24:27;101346.41;;;18.23;100.00
59513;BME280;45330;51.634;5.562;2023-05-09T06:26:52;101340.81;;;18.04;100.00
59513;BME280;45330;51.634;5.562;2023-05-09T06:29:18;101343.44;;;18.04;100.00
59513;BME280;45330;51.634;5.562;2023-05-09T06:31:43;101338.13;;;17.74;100.00
59513;BME280;45330;51.634;5.562;2023-05-09T06:34:09;101346.81;;;17.44;100.00
59513;BME280;45330;51.634;5.562;2023-05-09T06:36:34;101338.03;;;17.11;100.00
59513;BME280;45330;51.634;5.562;2023-05-09T06:39:00;101336.88;;;16.85;100.00
59513;BME280;45330;51.634;5.562;2023-05-09T06:41:25;101310.38;;;16.58;100.00
59513;BME280;45330;51.634;5.562;2023-05-09T06:43:51;101335.72;;;16.61;100.00
59513;BME280;45330;51.634;5.562;2023-05-09T06:46:17;101304.78;;;16.35;100.00
59513;BME280;45330;51.634;5.562;2023-05-09T06:48:42;101311.81;;;16.33;100.00
59513;BME280;45330;51.634;5.562;2023-05-09T06:51:07;101315.19;;;16.39;100.00
59513;BME280;45330;51.634;5.562;2023-05-09T06:53:33;101315.06;;;16.45;100.00
59513;BME280;45330;51.634;5.562;2023-05-09T06:55:58;101288.22;;;16.31;100.00
59513;BME280;45330;51.634;5.562;2023-05-09T06:58:24;101308.16;;;16.41;100.00
59513;BME280;45330;51.634;5.562;2023-05-09T07:00:51;101319.41;;;16.45;100.00
59513;BME280;45330;51.634;5.562;2023-05-09T07:03:17;101307.09;;;16.49;100.00
59513;BME280;45330;51.634;5.562;2023-05-09T07:05:42;101294.72;;;16.52;100.00
59513;BME280;45330;51.634;5.562;2023-05-09T07:08:07;101299.63;;;16.68;100.00
59513;BME280;45330;51.634;5.562;2023-05-09T07:10:33;101307.34;;;16.75;100.00
59513;BME280;45330;51.634;5.562;2023-05-09T07:12:58;101302.00;;;16.78;100.00
59513;BME280;45330;51.634;5.562;2023-05-09T07:15:24;101300.03;;;16.88;100.00
59513;BME280;45330;51.634;5.562;2023-05-09T07:17:49;101284.28;;;16.87;100.00
59513;BME280;45330;51.634;5.562;2023-05-09T07:20:15;101289.41;;;16.93;100.00
59513;BME280;45330;51.634;5.562;2023-05-09T07:22:40;101279.59;;;17.00;100.00
59513;BME280;45330;51.634;5.562;2023-05-09T07:25:07;101287.88;;;17.19;100.00
59513;BME280;45330;51.634;5.562;2023-05-09T07:27:33;101273.84;;;17.18;100.00
59513;BME280;45330;51.634;5.562;2023-05-09T07:29:58;101274.59;;;17.23;100.00
59513;BME280;45330;51.634;5.562;2023-05-09T07:32:23;101264.88;;;17.25;100.00
59513;BME280;45330;51.634;5.562;2023-05-09T07:34:49;101270.09;;;17.28;100.00
59513;BME280;45330;51.634;5.562;2023-05-09T07:37:14;101285.06;;;17.25;100.00
59513;BME280;45330;51.634;5.562;2023-05-09T07:39:40;101285.31;;;17.15;100.00
59513;BME280;45330;51.634;5.562;2023-05-09T07:42:05;101272.69;;;16.95;100.00
59513;BME280;45330;51.634;5.562;2023-05-09T07:44:32;101279.69;;;16.96;100.00
59513;BME280;45330;51.634;5.562;2023-05-09T07:46:57;101268.28;;;16.97;100.00
59513;BME280;45330;51.634;5.562;2023-05-09T07:49:24;101265.59;;;16.99;100.00
59513;BME280;45330;51.634;5.562;2023-05-09T07:51:50;101275.16;;;17.02;100.00
59513;BME280;45330;51.634;5.562;2023-05-09T07:54:15;101259.75;;;16.86;100.00
59513;BME280;45330;51.634;5.562;2023-05-09T07:56:41;101258.84;;;16.87;100.00
59513;BME280;45330;51.634;5.562;2023-05-09T07:59:07;101267.59;;;16.89;100.00
59513;BME280;45330;51.634;5.562;2023-05-09T08:01:32;101252.25;;;16.71;100.00
59513;BME280;45330;51.634;5.562;2023-05-09T08:03:58;101261.84;;;16.72;100.00
59513;BME280;45330;51.634;5.562;2023-05-09T08:06:23;101255.16;;;16.60;100.00
59513;BME280;45330;51.634;5.562;2023-05-09T08:08:48;101250.41;;;16.38;100.00
59513;BME280;45330;51.634;5.562;2023-05-09T08:11:14;101248.66;;;16.39;100.00
59513;BME280;45330;51.634;5.562;2023-05-09T08:13:39;101252.63;;;16.57;100.00
59513;BME280;45330;51.634;5.562;2023-05-09T08:16:04;101246.97;;;16.71;100.00
59513;BME280;45330;51.634;5.562;2023-05-09T08:18:30;101228.50;;;16.75;100.00
59513;BME280;45330;51.634;5.562;2023-05-09T08:20:56;101235.28;;;16.84;100.00
59513;BME280;45330;51.634;5.562;2023-05-09T08:23:23;101248.25;;;16.92;100.00
59513;BME280;45330;51.634;5.562;2023-05-09T08:25:52;101244.78;;;16.90;100.00
59513;BME280;45330;51.634;5.562;2023-05-09T08:28:18;101222.31;;;16.78;100.00
59513;BME280;45330;51.634;5.562;2023-05-09T08:30:44;101226.53;;;16.84;100.00
59513;BME280;45330;51.634;5.562;2023-05-09T08:33:09;101222.94;;;16.86;100.00
59513;BME280;45330;51.634;5.562;2023-05-09T08:35:35;101214.25;;;16.84;100.00
59513;BME280;45330;51.634;5.562;2023-05-09T08:38:00;101229.66;;;17.00;100.00
59513;BME280;45330;51.634;5.562;2023-05-09T08:40:25;101209.16;;;16.78;100.00
59513;BME280;45330;51.634;5.562;2023-05-09T08:42:51;101213.53;;;16.77;100.00
59513;BME280;45330;51.634;5.562;2023-05-09T08:45:22;101203.28;;;16.68;100.00
59513;BME280;45330;51.634;5.562;2023-05-09T08:47:51;101217.34;;;16.66;100.00
59513;BME280;45330;51.634;5.562;2023-05-09T08:50:17;101203.41;;;16.62;100.00
59513;BME280;45330;51.634;5.562;2023-05-09T08:52:43;101202.94;;;16.46;100.00
59513;BME280;45330;51.634;5.562;2023-05-09T08:55:08;101217.16;;;16.39;100.00
59513;BME280;45330;51.634;5.562;2023-05-09T08:57:34;101210.47;;;16.24;100.00
59513;BME280;45330;51.634;5.562;2023-05-09T09:00:00;101206.84;;;16.29;100.00
59513;BME280;45330;51.634;5.562;2023-05-09T09:02:25;101205.97;;;16.31;100.00
59513;BME280;45330;51.634;5.562;2023-05-09T09:04:53;101201.09;;;16.50;100.00
59513;BME280;45330;51.634;5.562;2023-05-09T09:07:19;101206.22;;;16.56;100.00
59513;BME280;45330;51.634;5.562;2023-05-09T09:09:46;101190.41;;;16.57;100.00
59513;BME280;45330;51.634;5.562;2023-05-09T09:12:14;101200.78;;;16.62;100.00
59513;BME280;45330;51.634;5.562;2023-05-09T09:14:45;101191.66;;;16.42;100.00
59513;BME280;45330;51.634;5.562;2023-05-09T09:17:15;101198.75;;;16.39;100.00
59513;BME280;45330;51.634;5.562;2023-05-09T09:19:43;101176.84;;;16.04;100.00
59513;BME280;45330;51.634;5.562;2023-05-09T09:22:12;101176.66;;;15.71;100.00
59513;BME280;45330;51.634;5.562;2023-05-09T09:24:39;101190.72;;;15.68;100.00
59513;BME280;45330;51.634;5.562;2023-05-09T09:27:05;101175.31;;;15.53;100.00
59513;BME280;45330;51.634;5.562;2023-05-09T09:29:32;101182.22;;;15.57;100.00
59513;BME280;45330;51.634;5.562;2023-05-09T09:32:01;101184.00;;;15.55;100.00
59513;BME280;45330;51.634;5.562;2023-05-09T09:34:26;101178.78;;;15.53;100.00
59513;BME280;45330;51.634;5.562;2023-05-09T09:36:52;101159.97;;;15.33;100.00
59513;BME280;45330;51.634;5.562;2023-05-09T09:39:17;101172.31;;;15.29;100.00
59513;BME280;45330;51.634;5.562;2023-05-09T09:41:43;101169.56;;;15.35;100.00
59513;BME280;45330;51.634;5.562;2023-05-09T09:44:10;101185.91;;;15.47;100.00
59513;BME280;45330;51.634;5.562;2023-05-09T09:46:54;101163.25;;;15.44;100.00
59513;BME280;45330;51.634;5.562;2023-05-09T09:49:25;101168.41;;;15.49;100.00
59513;BME280;45330;51.634;5.562;2023-05-09T09:51:55;101176.22;;;15.52;100.00
59513;BME280;45330;51.634;5.562;2023-05-09T09:54:21;101170.91;;;15.55;100.00
59513;BME280;45330;51.634;5.562;2023-05-09T09:56:50;101165.81;;;15.47;100.00
59513;BME280;45330;51.634;5.562;2023-05-09T09:59:20;101160.13;;;15.26;100.00
59513;BME280;45330;51.634;5.562;2023-05-09T10:04:29;101152.22;;;14.84;100.00
59513;BME280;45330;51.634;5.562;2023-05-09T10:06:59;101167.13;;;14.81;100.00
59513;BME280;45330;51.634;5.562;2023-05-09T10:09:27;101150.75;;;14.68;100.00
59513;BME280;45330;51.634;5.562;2023-05-09T10:11:54;101157.66;;;14.73;100.00
59513;BME280;45330;51.634;5.562;2023-05-09T10:14:24;101142.94;;;14.66;100.00
59513;BME280;45330;51.634;5.562;2023-05-09T10:16:53;101160.00;;;14.87;100.00
59513;BME280;45330;51.634;5.562;2023-05-09T10:19:21;101158.00;;;15.00;100.00
59513;BME280;45330;51.634;5.562;2023-05-09T10:21:52;101151.69;;;15.12;100.00
59513;BME280;45330;51.634;5.562;2023-05-09T10:24:45;101139.59;;;15.03;100.00
59513;BME280;45330;51.634;5.562;2023-05-09T10:27:10;101155.22;;;15.09;100.00
59513;BME280;45330;51.634;5.562;2023-05-09T10:30:12;101149.34;;;14.98;100.00
59513;BME280;45330;51.634;5.562;2023-05-09T10:32:40;101148.81;;;14.79;100.00
59513;BME280;45330;51.634;5.562;2023-05-09T10:35:07;101133.22;;;14.73;100.00
59513;BME280;45330;51.634;5.562;2023-05-09T10:37:35;101129.75;;;14.71;100.00
59513;BME280;45330;51.634;5.562;2023-05-09T10:40:02;101122.00;;;14.65;100.00
59513;BME280;45330;51.634;5.562;2023-05-09T10:42:29;101122.00;;;14.65;100.00
59513;BME280;45330;51.634;5.562;2023-05-09T10:44:55;101127.47;;;14.51;100.00
59513;BME280;45330;51.634;5.562;2023-05-09T10:47:22;101104.94;;;14.42;100.00
59513;BME280;45330;51.634;5.562;2023-05-09T10:49:51;101121.22;;;14.58;100.00
59513;BME280;45330;51.634;5.562;2023-05-09T10:52:17;101122.84;;;14.68;100.00
59513;BME280;45330;51.634;5.562;2023-05-09T10:54:43;101087.38;;;14.49;100.00
59513;BME280;45330;51.634;5.562;2023-05-09T10:57:08;101111.59;;;14.60;100.00
59513;BME280;45330;51.634;5.562;2023-05-09T10:59:38;101109.81;;;14.64;100.00
59513;BME280;45330;51.634;5.562;2023-05-09T11:02:06;101105.44;;;14.64;100.00
59513;BME280;45330;51.634;5.562;2023-05-09T11:04:37;101086.44;;;14.53;100.00
59513;BME280;45330;51.634;5.562;2023-05-09T11:07:21;101099.25;;;14.68;100.00
59513;BME280;45330;51.634;5.562;2023-05-09T11:10:05;101090.53;;;14.68;100.00
59513;BME280;45330;51.634;5.562;2023-05-09T11:12:31;101075.06;;;14.52;100.00
59513;BME280;45330;51.634;5.562;2023-05-09T11:15:04;101068.13;;;14.50;100.00
59513;BME280;45330;51.634;5.562;2023-05-09T11:17:30;101092.38;;;14.63;100.00
59513;BME280;45330;51.634;5.562;2023-05-09T11:20:02;101065.66;;;14.42;100.00
59513;BME280;45330;51.634;5.562;2023-05-09T11:22:37;101086.31;;;14.57;100.00
59513;BME280;45330;51.634;5.562;2023-05-09T11:28:03;101083.84;;;14.50;100.00
59513;BME280;45330;51.634;5.562;2023-05-09T11:30:39;101083.13;;;14.43;100.00
59513;BME280;45330;51.634;5.562;2023-05-09T11:33:05;101061.41;;;14.36;100.00
59513;BME280;45330;51.634;5.562;2023-05-09T11:35:31;101050.19;;;14.30;100.00
59513;BME280;45330;51.634;5.562;2023-05-09T11:38:03;101051.91;;;14.31;100.00
59513;BME280;45330;51.634;5.562;2023-05-09T11:40:28;101072.47;;;14.51;100.00
59513;BME280;45330;51.634;5.562;2023-05-09T11:42:56;101050.91;;;14.38;100.00
59513;BME280;45330;51.634;5.562;2023-05-09T11:45:23;101065.56;;;14.47;100.00
59513;BME280;45330;51.634;5.562;2023-05-09T11:47:51;101055.97;;;14.47;100.00
59513;BME280;45330;51.634;5.562;2023-05-09T11:50:18;101043.88;;;14.40;100.00
59513;BME280;45330;51.634;5.562;2023-05-09T11:52:45;101058.50;;;14.52;100.00
59513;BME280;45330;51.634;5.562;2023-05-09T11:55:16;101042.75;;;14.53;100.00
59513;BME280;45330;51.634;5.562;2023-05-09T11:57:47;101025.50;;;14.43;100.00
59513;BME280;45330;51.634;5.562;2023-05-09T12:00:20;101029.72;;;14.50;100.00
59513;BME280;45330;51.634;5.562;2023-05-09T12:02:47;101045.25;;;14.59;100.00
59513;BME280;45330;51.634;5.562;2023-05-09T12:05:15;101022.81;;;14.46;100.00
59513;BME280;45330;51.634;5.562;2023-05-09T12:07:41;101021.16;;;14.42;100.00
59513;BME280;45330;51.634;5.562;2023-05-09T12:10:07;101027.72;;;14.65;100.00
59513;BME280;45330;51.634;5.562;2023-05-09T12:12:44;101037.13;;;14.75;100.00
59513;BME280;45330;51.634;5.562;2023-05-09T12:15:10;101010.38;;;14.57;100.00
59513;BME280;45330;51.634;5.562;2023-05-09T12:17:37;101019.00;;;14.66;100.00
59513;BME280;45330;51.634;5.562;2023-05-09T12:20:04;101033.78;;;14.68;100.00
59513;BME280;45330;51.634;5.562;2023-05-09T12:22:30;101027.72;;;14.65;100.00
59513;BME280;45330;51.634;5.562;2023-05-09T12:24:59;101030.06;;;14.79;100.00
59513;BME280;45330;51.634;5.562;2023-05-09T12:27:26;101023.84;;;14.84;100.00
59513;BME280;45330;51.634;5.562;2023-05-09T12:29:53;101026.44;;;14.86;100.00
59513;BME280;45330;51.634;5.562;2023-05-09T12:32:19;101028.94;;;14.90;100.00
59513;BME280;45330;51.634;5.562;2023-05-09T12:34:44;101030.72;;;14.90;100.00
59513;BME280;45330;51.634;5.562;2023-05-09T12:37:16;101021.09;;;14.89;100.00
59513;BME280;45330;51.634;5.562;2023-05-09T12:40:08;101019.53;;;14.82;100.00
59513;BME280;45330;51.634;5.562;2023-05-09T12:42:36;101009.53;;;14.55;100.00
59513;BME280;45330;51.634;5.562;2023-05-09T12:45:02;101012.34;;;14.46;100.00
59513;BME280;45330;51.634;5.562;2023-05-09T12:47:29;101005.22;;;14.54;100.00
59513;BME280;45330;51.634;5.562;2023-05-09T12:50:01;100976.66;;;14.42;100.00
59513;BME280;45330;51.634;5.562;2023-05-09T12:52:40;100997.34;;;14.54;100.00